createdAt,value
2018-12-21T00:00:06.028Z,4.20
2018-12-21T00:01:05.996Z,3.70
2018-12-21T00:02:05.986Z,3.70
2018-12-21T00:03:05.999Z,4.10
2018-12-21T00:04:05.970Z,4.20
2018-12-21T00:05:05.949Z,4.20
2018-12-21T00:06:05.937Z,4.30
2018-12-21T00:07:05.946Z,3.90
2018-12-21T00:08:05.953Z,4.00
2018-12-21T00:09:05.908Z,4.30
2018-12-21T00:10:05.892Z,3.50
2018-12-21T00:11:05.880Z,4.40
2018-12-21T00:12:05.905Z,4.20
2018-12-21T00:13:05.863Z,4.10
2018-12-21T00:14:05.858Z,4.30
2018-12-21T00:15:05.843Z,3.90
2018-12-21T00:16:05.831Z,4.00
2018-12-21T00:17:05.818Z,3.60
2018-12-21T00:18:05.827Z,4.50
2018-12-21T00:19:05.792Z,3.80
2018-12-21T00:20:05.788Z,4.10
2018-12-21T00:21:05.779Z,3.40
2018-12-21T00:22:05.769Z,3.50
2018-12-21T00:23:05.792Z,4.30
2018-12-21T00:24:05.740Z,3.80
2018-12-21T00:25:05.794Z,3.10
2018-12-21T00:26:05.721Z,3.70
2018-12-21T00:27:05.712Z,3.80
2018-12-21T00:28:05.703Z,3.40
2018-12-21T00:29:05.708Z,4.00
2018-12-21T00:30:05.682Z,3.60
2018-12-21T00:31:05.664Z,3.70
2018-12-21T00:32:05.658Z,3.70
2018-12-21T00:33:05.649Z,4.00
2018-12-21T00:34:05.659Z,3.90
2018-12-21T00:35:05.627Z,4.30
2018-12-21T00:36:05.612Z,3.80
2018-12-21T00:37:05.606Z,3.90
2018-12-21T00:38:05.812Z,3.60
2018-12-21T00:39:05.597Z,4.10
2018-12-21T00:40:05.570Z,3.60
2018-12-21T00:41:05.563Z,3.40
2018-12-21T00:42:05.568Z,3.90
2018-12-21T00:43:05.534Z,3.60
2018-12-21T00:44:05.553Z,3.60
2018-12-21T00:45:05.518Z,3.50
2018-12-21T00:46:05.507Z,4.00
2018-12-21T00:47:05.494Z,3.70
2018-12-21T00:48:05.477Z,4.10
2018-12-21T00:49:05.498Z,3.90
2018-12-21T00:50:05.470Z,3.60
2018-12-21T00:51:05.463Z,4.10
2018-12-21T00:52:05.462Z,3.80
2018-12-21T00:53:05.485Z,3.50
2018-12-21T00:54:05.454Z,3.40
2018-12-21T00:55:05.423Z,3.20
2018-12-21T00:56:05.394Z,3.60
2018-12-21T00:57:05.383Z,3.10
2018-12-21T00:58:05.382Z,3.60
2018-12-21T00:59:05.391Z,3.90
2018-12-21T01:00:05.378Z,3.80
2018-12-21T01:01:05.345Z,3.50
2018-12-21T01:02:05.327Z,3.20
2018-12-21T01:03:06.755Z,3.30
2018-12-21T01:04:05.315Z,3.30
2018-12-21T01:05:05.311Z,3.10
2018-12-21T01:06:05.314Z,4.30
2018-12-21T01:07:05.283Z,3.10
2018-12-21T01:08:05.288Z,3.50
2018-12-21T01:09:05.270Z,3.70
2018-12-21T01:10:05.242Z,3.60
2018-12-21T01:11:05.256Z,3.20
2018-12-21T01:12:05.225Z,3.10
2018-12-21T01:13:05.215Z,3.30
2018-12-21T01:14:05.227Z,3.60
2018-12-21T01:15:05.188Z,3.50
2018-12-21T01:16:05.205Z,3.50
2018-12-21T01:17:05.177Z,3.10
2018-12-21T01:18:05.194Z,3.60
2018-12-21T01:19:05.171Z,3.50
2018-12-21T01:20:05.131Z,3.10
2018-12-21T01:21:05.158Z,3.60
2018-12-21T01:22:05.124Z,3.80
2018-12-21T01:23:05.108Z,3.30
2018-12-21T01:24:05.101Z,3.80
2018-12-21T01:25:05.132Z,3.50
2018-12-21T01:26:05.074Z,3.30
2018-12-21T01:27:05.083Z,3.30
2018-12-21T01:28:05.059Z,7.60
2018-12-21T01:29:05.118Z,3.40
2018-12-21T01:30:05.024Z,4.10
2018-12-21T01:31:05.025Z,3.70
2018-12-21T01:32:05.021Z,3.10
2018-12-21T01:33:04.998Z,3.10
2018-12-21T01:34:05.012Z,3.60
2018-12-21T01:35:04.978Z,3.20
2018-12-21T01:36:04.968Z,4.00
2018-12-21T01:37:04.965Z,3.00
2018-12-21T01:38:04.938Z,3.10
2018-12-21T01:39:04.975Z,3.40
2018-12-21T01:40:04.962Z,3.30
2018-12-21T01:41:04.920Z,3.40
2018-12-21T01:42:04.907Z,3.20
2018-12-21T01:43:04.902Z,3.00
2018-12-21T01:44:04.877Z,3.20
2018-12-21T01:45:04.899Z,3.10
2018-12-21T01:46:04.864Z,3.30
2018-12-21T01:47:04.882Z,3.90
2018-12-21T01:48:04.837Z,3.20
2018-12-21T01:49:04.829Z,3.40
2018-12-21T01:50:04.820Z,3.20
2018-12-21T01:51:04.830Z,3.30
2018-12-21T01:52:04.804Z,3.10
2018-12-21T01:53:04.788Z,3.10
2018-12-21T01:54:04.789Z,3.20
2018-12-21T01:55:04.763Z,3.10
2018-12-21T01:56:04.779Z,3.40
2018-12-21T01:57:04.737Z,2.90
2018-12-21T01:58:04.731Z,3.00
2018-12-21T01:59:04.722Z,3.40
2018-12-21T02:00:04.716Z,3.00
2018-12-21T02:01:04.729Z,3.30
2018-12-21T02:02:04.728Z,3.00
2018-12-21T02:03:04.680Z,2.90
2018-12-21T02:04:04.672Z,2.80
2018-12-21T02:05:04.662Z,3.10
2018-12-21T02:06:04.657Z,3.10
2018-12-21T02:07:04.636Z,2.90
2018-12-21T02:08:04.667Z,3.10
2018-12-21T02:09:04.607Z,3.00
2018-12-21T02:10:04.606Z,2.90
2018-12-21T02:11:04.589Z,2.90
2018-12-21T02:12:04.611Z,3.10
2018-12-21T02:13:04.567Z,3.00
2018-12-21T02:14:04.557Z,2.90
2018-12-21T02:15:04.553Z,2.90
2018-12-21T02:16:04.531Z,2.80
2018-12-21T02:17:04.551Z,2.80
2018-12-21T02:18:04.527Z,3.00
2018-12-21T02:19:04.507Z,2.90
2018-12-21T02:20:04.486Z,3.10
2018-12-21T02:21:04.473Z,2.80
2018-12-21T02:22:04.483Z,3.20
2018-12-21T02:23:04.450Z,3.00
2018-12-21T02:24:04.446Z,2.80
2018-12-21T02:25:04.465Z,2.50
2018-12-21T02:26:04.430Z,2.70
2018-12-21T02:27:04.417Z,2.50
2018-12-21T02:28:04.403Z,2.70
2018-12-21T02:29:04.382Z,2.80
2018-12-21T02:30:04.383Z,2.80
2018-12-21T02:31:04.388Z,3.00
2018-12-21T02:32:04.367Z,2.70
2018-12-21T02:33:04.349Z,3.10
2018-12-21T02:34:04.333Z,2.50
2018-12-21T02:35:04.332Z,2.80
2018-12-21T02:36:04.348Z,3.00
2018-12-21T02:37:04.329Z,2.80
2018-12-21T02:38:04.304Z,2.50
2018-12-21T02:39:13.385Z,2.40
2018-12-21T02:40:04.262Z,2.80
2018-12-21T02:41:04.257Z,2.80
2018-12-21T02:42:04.277Z,2.60
2018-12-21T02:43:04.251Z,2.80
2018-12-21T02:44:04.226Z,2.20
2018-12-21T02:45:04.214Z,2.50
2018-12-21T02:46:04.206Z,2.80
2018-12-21T02:47:04.187Z,2.70
2018-12-21T02:48:04.215Z,2.80
2018-12-21T02:49:04.171Z,2.60
2018-12-21T02:50:04.153Z,2.50
2018-12-21T02:51:04.144Z,2.30
2018-12-21T02:52:05.777Z,2.50
2018-12-21T02:53:04.121Z,2.60
2018-12-21T02:54:04.147Z,2.30
2018-12-21T02:55:04.102Z,2.50
2018-12-21T02:56:04.097Z,2.20
2018-12-21T02:57:04.085Z,2.30
2018-12-21T02:58:04.066Z,2.20
2018-12-21T02:59:04.058Z,2.40
2018-12-21T03:00:04.068Z,2.50
2018-12-21T03:01:04.032Z,2.40
2018-12-21T03:02:04.028Z,1.90
2018-12-21T03:03:04.027Z,2.70
2018-12-21T03:04:04.035Z,2.10
2018-12-21T03:05:03.991Z,2.70
2018-12-21T03:06:03.993Z,2.60
2018-12-21T03:07:03.971Z,2.50
2018-12-21T03:08:03.963Z,2.30
2018-12-21T03:09:03.953Z,2.30
2018-12-21T03:10:03.959Z,2.40
2018-12-21T03:11:03.932Z,2.40
2018-12-21T03:12:03.948Z,2.20
2018-12-21T03:13:03.905Z,2.40
2018-12-21T03:14:03.900Z,2.00
2018-12-21T03:15:03.888Z,2.30
2018-12-21T03:16:03.876Z,2.20
2018-12-21T03:17:03.865Z,2.40
2018-12-21T03:18:03.872Z,2.00
2018-12-21T03:19:03.836Z,2.50
2018-12-21T03:20:03.852Z,2.30
2018-12-21T03:21:03.820Z,2.40
2018-12-21T03:22:03.825Z,2.00
2018-12-21T03:23:03.829Z,2.30
2018-12-21T03:24:03.780Z,2.10
2018-12-21T03:25:03.777Z,2.50
2018-12-21T03:26:03.768Z,2.30
2018-12-21T03:27:03.756Z,2.30
2018-12-21T03:28:03.745Z,2.30
2018-12-21T03:29:03.754Z,2.50
2018-12-21T03:30:04.469Z,2.30
2018-12-21T03:31:03.724Z,2.30
2018-12-21T03:32:03.696Z,2.30
2018-12-21T03:33:03.714Z,2.40
2018-12-21T03:34:03.707Z,2.80
2018-12-21T03:35:03.674Z,2.50
2018-12-21T03:36:03.651Z,3.30
2018-12-21T03:37:03.640Z,2.50
2018-12-21T03:38:03.643Z,2.40
2018-12-21T03:39:03.664Z,2.50
2018-12-21T03:40:03.616Z,2.30
2018-12-21T03:41:03.605Z,2.50
2018-12-21T03:42:03.648Z,2.20
2018-12-21T03:43:03.574Z,2.30
2018-12-21T03:44:03.584Z,1.90
2018-12-21T03:45:03.553Z,2.20
2018-12-21T03:46:03.549Z,2.00
2018-12-21T03:47:03.537Z,2.40
2018-12-21T03:48:03.527Z,2.20
2018-12-21T03:49:03.537Z,2.00
2018-12-21T03:50:03.511Z,2.20
2018-12-21T03:51:03.491Z,2.10
2018-12-21T03:52:03.495Z,2.40
2018-12-21T03:53:03.474Z,2.40
2018-12-21T03:54:03.478Z,2.50
2018-12-21T03:55:03.443Z,2.10
2018-12-21T03:56:03.437Z,2.30
2018-12-21T03:57:03.426Z,2.20
2018-12-21T03:58:03.420Z,2.70
2018-12-21T03:59:03.444Z,2.40
2018-12-21T04:00:03.398Z,2.00
2018-12-21T04:01:03.389Z,2.10
2018-12-21T04:02:03.373Z,2.00
2018-12-21T04:03:03.361Z,2.30
2018-12-21T04:04:03.370Z,2.20
2018-12-21T04:05:03.340Z,2.30
2018-12-21T04:06:03.337Z,2.50
2018-12-21T04:07:03.333Z,2.30
2018-12-21T04:08:03.309Z,2.30
2018-12-21T04:09:03.318Z,2.20
2018-12-21T04:10:03.293Z,2.30
2018-12-21T04:11:03.282Z,2.40
2018-12-21T04:12:03.276Z,2.30
2018-12-21T04:13:03.259Z,2.20
2018-12-21T04:14:03.266Z,2.30
2018-12-21T04:15:03.235Z,2.60
2018-12-21T04:16:03.223Z,2.00
2018-12-21T04:17:03.212Z,2.20
2018-12-21T04:18:03.209Z,2.40
2018-12-21T04:19:03.215Z,2.20
2018-12-21T04:20:03.185Z,2.20
2018-12-21T04:21:03.176Z,2.40
2018-12-21T04:22:03.165Z,2.30
2018-12-21T04:23:03.145Z,2.50
2018-12-21T04:24:03.160Z,2.10
2018-12-21T04:25:03.131Z,2.40
2018-12-21T04:26:03.122Z,2.30
2018-12-21T04:27:03.105Z,2.60
2018-12-21T04:28:03.089Z,2.30
2018-12-21T04:29:03.101Z,2.50
2018-12-21T04:30:03.077Z,2.70
2018-12-21T04:31:03.071Z,2.70
2018-12-21T04:32:03.055Z,2.70
2018-12-21T04:33:03.048Z,2.20
2018-12-21T04:34:03.062Z,2.50
2018-12-21T04:35:03.015Z,2.80
2018-12-21T04:36:03.010Z,2.50
2018-12-21T04:37:03.002Z,2.70
2018-12-21T04:38:02.996Z,2.50
2018-12-21T04:39:03.005Z,2.60
2018-12-21T04:40:02.983Z,2.20
2018-12-21T04:41:02.955Z,2.10
2018-12-21T04:42:03.002Z,2.50
2018-12-21T04:43:02.943Z,2.80
2018-12-21T04:44:02.944Z,2.70
2018-12-21T04:45:02.918Z,2.60
2018-12-21T04:46:02.899Z,2.40
2018-12-21T04:47:02.885Z,2.50
2018-12-21T04:48:02.879Z,2.60
2018-12-21T04:49:02.884Z,2.90
2018-12-21T04:50:02.858Z,2.60
2018-12-21T04:51:02.852Z,2.60
2018-12-21T04:52:02.839Z,2.60
2018-12-21T04:53:02.829Z,2.70
2018-12-21T04:54:02.835Z,2.90
2018-12-21T04:55:02.814Z,2.40
2018-12-21T04:56:02.795Z,3.00
2018-12-21T04:57:02.788Z,2.80
2018-12-21T04:58:02.769Z,3.00
2018-12-21T04:59:02.776Z,2.60
2018-12-21T05:00:02.755Z,2.70
2018-12-21T05:01:02.736Z,2.70
2018-12-21T05:02:02.740Z,2.90
2018-12-21T05:03:02.721Z,2.90
2018-12-21T05:04:02.732Z,2.90
2018-12-21T05:05:02.703Z,3.00
2018-12-21T05:06:02.679Z,2.90
2018-12-21T05:07:02.677Z,2.80
2018-12-21T05:08:02.656Z,2.60
2018-12-21T05:09:02.672Z,3.10
2018-12-21T05:10:02.642Z,2.80
2018-12-21T05:11:02.651Z,2.60
2018-12-21T05:12:02.614Z,2.70
2018-12-21T05:13:02.614Z,2.60
2018-12-21T05:14:02.626Z,2.90
2018-12-21T05:15:02.585Z,2.40
2018-12-21T05:16:02.585Z,2.60
2018-12-21T05:17:02.566Z,2.70
2018-12-21T05:18:02.554Z,2.70
2018-12-21T05:19:02.563Z,2.70
2018-12-21T05:20:02.529Z,2.70
2018-12-21T05:21:02.514Z,2.60
2018-12-21T05:22:02.512Z,2.60
2018-12-21T05:23:02.506Z,2.80
2018-12-21T05:24:02.511Z,2.50
2018-12-21T05:25:02.479Z,2.70
2018-12-21T05:26:02.463Z,2.80
2018-12-21T05:27:02.488Z,2.50
2018-12-21T05:28:02.444Z,2.70
2018-12-21T05:29:02.465Z,2.50
2018-12-21T05:30:02.425Z,3.10
2018-12-21T05:31:02.408Z,2.60
2018-12-21T05:32:02.395Z,2.60
2018-12-21T05:33:02.384Z,2.60
2018-12-21T05:34:02.399Z,2.50
2018-12-21T05:35:02.373Z,2.70
2018-12-21T05:36:02.367Z,2.90
2018-12-21T05:37:02.352Z,2.80
2018-12-21T05:38:02.330Z,2.60
2018-12-21T05:39:02.343Z,2.70
2018-12-21T05:40:02.309Z,2.70
2018-12-21T05:41:02.300Z,2.90
2018-12-21T05:42:02.299Z,2.70
2018-12-21T05:43:02.287Z,2.60
2018-12-21T05:44:02.289Z,2.60
2018-12-21T05:45:02.257Z,2.70
2018-12-21T05:46:02.250Z,2.70
2018-12-21T05:47:02.249Z,2.70
2018-12-21T05:48:02.238Z,2.30
2018-12-21T05:49:02.243Z,2.60
2018-12-21T05:50:02.203Z,3.30
2018-12-21T05:51:02.192Z,2.50
2018-12-21T05:52:02.185Z,2.70
2018-12-21T05:53:02.171Z,2.70
2018-12-21T05:54:02.189Z,2.40
2018-12-21T05:55:02.154Z,2.90
2018-12-21T05:56:02.144Z,2.30
2018-12-21T05:57:02.138Z,2.60
2018-12-21T05:58:02.118Z,2.70
2018-12-21T05:59:02.125Z,2.70
2018-12-21T06:00:02.104Z,2.40
2018-12-21T06:01:02.093Z,2.90
2018-12-21T06:02:02.077Z,2.70
2018-12-21T06:03:02.065Z,2.40
2018-12-21T06:04:02.090Z,3.00
2018-12-21T06:05:02.050Z,2.60
2018-12-21T06:06:02.050Z,2.30
2018-12-21T06:07:02.032Z,2.40
2018-12-21T06:08:02.048Z,2.50
2018-12-21T06:09:02.026Z,2.10
2018-12-21T06:10:01.988Z,2.50
2018-12-21T06:11:01.979Z,2.40
2018-12-21T06:12:01.967Z,2.60
2018-12-21T06:13:01.960Z,2.50
2018-12-21T06:14:01.973Z,2.50
2018-12-21T06:15:01.938Z,2.40
2018-12-21T06:16:01.921Z,2.70
2018-12-21T06:17:01.912Z,2.00
2018-12-21T06:18:01.911Z,2.50
2018-12-21T06:19:01.915Z,2.50
2018-12-21T06:20:01.885Z,3.00
2018-12-21T06:21:01.879Z,2.10
2018-12-21T06:22:01.862Z,2.40
2018-12-21T06:23:09.219Z,2.70
2018-12-21T06:24:02.871Z,2.40
2018-12-21T06:25:01.825Z,2.80
2018-12-21T06:26:01.831Z,2.70
2018-12-21T06:27:01.809Z,2.50
2018-12-21T06:28:01.800Z,2.80
2018-12-21T06:29:01.812Z,2.30
2018-12-21T06:30:01.773Z,2.50
2018-12-21T06:31:01.760Z,2.80
2018-12-21T06:32:01.844Z,2.70
2018-12-21T06:33:01.743Z,2.90
2018-12-21T06:34:01.747Z,2.90
2018-12-21T06:35:01.719Z,2.70
2018-12-21T06:36:01.705Z,3.20
2018-12-21T06:37:01.693Z,2.80
2018-12-21T06:38:01.687Z,2.80
2018-12-21T06:39:01.700Z,2.40
2018-12-21T06:40:01.666Z,2.80
2018-12-21T06:41:01.682Z,2.70
2018-12-21T06:42:01.643Z,2.90
2018-12-21T06:43:01.628Z,2.70
2018-12-21T06:44:01.644Z,2.90
2018-12-21T06:45:01.620Z,2.90
2018-12-21T06:46:01.603Z,2.50
2018-12-21T06:47:01.598Z,2.70
2018-12-21T06:48:01.576Z,3.00
2018-12-21T06:49:01.583Z,2.60
2018-12-21T06:50:01.557Z,2.70
2018-12-21T06:51:01.545Z,2.50
2018-12-21T06:52:01.533Z,2.60
2018-12-21T06:53:01.527Z,2.60
2018-12-21T06:54:01.528Z,2.40
2018-12-21T06:55:01.513Z,2.40
2018-12-21T06:56:01.486Z,3.20
2018-12-21T06:57:01.478Z,2.70
2018-12-21T06:58:01.469Z,2.50
2018-12-21T06:59:01.494Z,3.00
2018-12-21T07:00:01.448Z,2.50
2018-12-21T07:01:01.442Z,2.70
2018-12-21T07:02:01.434Z,2.70
2018-12-21T07:03:01.408Z,2.60
2018-12-21T07:04:01.407Z,2.60
2018-12-21T07:05:01.414Z,2.70
2018-12-21T07:06:01.383Z,2.90
2018-12-21T07:07:01.366Z,2.60
2018-12-21T07:08:01.353Z,2.00
2018-12-21T07:09:01.343Z,2.60
2018-12-21T07:10:01.396Z,2.70
2018-12-21T07:11:01.329Z,2.70
2018-12-21T07:12:01.333Z,2.90
2018-12-21T07:13:01.311Z,2.70
2018-12-21T07:14:01.291Z,2.80
2018-12-21T07:15:01.382Z,2.40
2018-12-21T07:16:01.275Z,2.70
2018-12-21T07:17:01.263Z,2.70
2018-12-21T07:18:01.255Z,2.60
2018-12-21T07:19:01.249Z,3.20
2018-12-21T07:20:01.259Z,2.70
2018-12-21T07:21:01.223Z,2.80
2018-12-21T07:22:01.210Z,2.80
2018-12-21T07:23:01.202Z,2.80
2018-12-21T07:24:01.215Z,3.00
2018-12-21T07:25:01.177Z,2.70
2018-12-21T07:26:01.183Z,2.50
2018-12-21T07:27:01.172Z,2.80
2018-12-21T07:28:01.142Z,2.70
2018-12-21T07:29:01.126Z,2.80
2018-12-21T07:30:01.173Z,2.70
2018-12-21T07:31:01.122Z,3.00
2018-12-21T07:32:01.102Z,2.50
2018-12-21T07:33:01.105Z,2.80
2018-12-21T07:34:01.092Z,2.50
2018-12-21T07:35:01.103Z,2.70
2018-12-21T07:36:08.438Z,2.70
2018-12-21T07:37:02.048Z,2.70
2018-12-21T07:38:01.031Z,2.90
2018-12-21T07:39:01.019Z,3.20
2018-12-21T07:40:01.046Z,2.40
2018-12-21T07:41:00.999Z,2.70
2018-12-21T07:42:00.993Z,2.00
2018-12-21T07:43:00.983Z,2.60
2018-12-21T07:44:00.970Z,3.20
2018-12-21T07:45:00.958Z,2.50
2018-12-21T07:46:00.965Z,2.80
2018-12-21T07:47:00.935Z,2.60
2018-12-21T07:48:00.922Z,2.40
2018-12-21T07:49:00.923Z,2.30
2018-12-21T07:50:00.936Z,2.50
2018-12-21T07:51:00.898Z,2.50
2018-12-21T07:52:00.876Z,2.70
2018-12-21T07:53:00.869Z,2.70
2018-12-21T07:54:00.865Z,2.40
2018-12-21T07:55:00.853Z,2.80
2018-12-21T07:56:00.865Z,2.20
2018-12-21T07:57:00.841Z,2.60
2018-12-21T07:58:00.815Z,2.50
2018-12-21T07:59:00.804Z,2.40
2018-12-21T08:00:00.801Z,2.10
2018-12-21T08:01:00.803Z,2.40
2018-12-21T08:02:00.777Z,2.30
2018-12-21T08:03:00.778Z,2.50
2018-12-21T08:04:00.764Z,2.50
2018-12-21T08:05:00.757Z,2.30
2018-12-21T08:06:00.751Z,2.40
2018-12-21T08:07:00.717Z,2.70
2018-12-21T08:08:00.715Z,2.50
2018-12-21T08:09:00.706Z,2.50
2018-12-21T08:10:00.687Z,2.60
2018-12-21T08:11:00.709Z,2.30
2018-12-21T08:12:00.666Z,2.50
2018-12-21T08:13:00.654Z,2.20
2018-12-21T08:14:00.655Z,2.40
2018-12-21T08:15:00.644Z,2.20
2018-12-21T08:16:00.658Z,2.70
2018-12-21T08:17:00.621Z,2.40
2018-12-21T08:18:00.659Z,2.40
2018-12-21T08:19:00.586Z,2.40
2018-12-21T08:20:00.575Z,2.70
2018-12-21T08:21:00.586Z,2.40
2018-12-21T08:22:00.557Z,2.20
2018-12-21T08:23:00.545Z,2.30
2018-12-21T08:24:00.528Z,2.30
2018-12-21T08:25:00.520Z,2.70
2018-12-21T08:26:00.542Z,2.40
2018-12-21T08:27:00.505Z,2.40
2018-12-21T08:28:01.446Z,2.10
2018-12-21T08:29:00.479Z,2.20
2018-12-21T08:30:00.524Z,2.10
2018-12-21T08:31:00.475Z,2.30
2018-12-21T08:32:01.424Z,2.10
2018-12-21T08:33:00.446Z,2.10
2018-12-21T08:34:00.427Z,2.30
2018-12-21T08:35:00.524Z,2.20
2018-12-21T08:36:00.433Z,2.00
2018-12-21T08:37:00.396Z,2.10
2018-12-21T08:38:00.378Z,2.30
2018-12-21T08:39:00.366Z,2.30
2018-12-21T08:40:08.937Z,2.10
2018-12-21T08:41:00.368Z,2.30
2018-12-21T08:42:00.334Z,2.40
2018-12-21T08:43:00.327Z,2.00
2018-12-21T08:44:00.316Z,1.80
2018-12-21T08:45:00.310Z,2.20
2018-12-21T08:46:00.319Z,2.20
2018-12-21T08:47:00.286Z,1.90
2018-12-21T08:48:00.267Z,2.20
2018-12-21T08:49:00.259Z,2.30
2018-12-21T08:50:00.282Z,2.40
2018-12-21T08:51:00.238Z,2.00
2018-12-21T08:52:00.233Z,2.20
2018-12-21T08:53:00.222Z,2.30
2018-12-21T08:54:00.200Z,1.90
2018-12-21T08:55:00.196Z,2.10
2018-12-21T08:56:00.218Z,2.20
2018-12-21T08:57:00.176Z,2.20
2018-12-21T08:58:00.167Z,2.10
2018-12-21T08:59:00.154Z,2.20
2018-12-21T09:00:00.133Z,1.90
2018-12-21T09:01:00.145Z,2.20
2018-12-21T09:02:00.121Z,1.90
2018-12-21T09:03:00.109Z,1.90
2018-12-21T09:04:00.099Z,2.60
2018-12-21T09:05:00.088Z,2.40
2018-12-21T09:06:00.115Z,2.60
2018-12-21T09:07:00.102Z,2.60
2018-12-21T09:08:00.049Z,2.40
2018-12-21T09:09:00.037Z,2.60
2018-12-21T09:10:00.032Z,2.30
2018-12-21T09:11:00.049Z,2.30
2018-12-21T09:12:00.009Z,2.30
2018-12-21T09:12:59.999Z,1.70
2018-12-21T09:13:59.983Z,2.30
2018-12-21T09:14:59.971Z,2.10
2018-12-21T09:15:59.969Z,1.90
2018-12-21T09:16:59.979Z,1.80
2018-12-21T09:17:59.954Z,2.00
2018-12-21T09:18:59.935Z,2.10
2018-12-21T09:19:59.915Z,2.20
2018-12-21T09:20:59.906Z,2.30
2018-12-21T09:21:59.916Z,2.00
2018-12-21T09:22:59.886Z,2.20
2018-12-21T09:24:01.190Z,2.20
2018-12-21T09:24:59.873Z,1.70
2018-12-21T09:25:59.857Z,2.10
2018-12-21T09:26:59.862Z,1.70
2018-12-21T09:27:59.838Z,2.10
2018-12-21T09:28:59.830Z,1.70
2018-12-21T09:29:59.815Z,1.70
2018-12-21T09:30:59.801Z,1.90
2018-12-21T09:32:04.950Z,2.00
2018-12-21T09:33:00.783Z,1.70
2018-12-21T09:33:59.772Z,1.70
2018-12-21T09:34:59.753Z,1.80
2018-12-21T09:35:59.765Z,1.90
2018-12-21T09:36:59.738Z,2.10
2018-12-21T09:37:59.755Z,1.70
2018-12-21T09:38:59.720Z,1.50
2018-12-21T09:39:59.701Z,1.70
2018-12-21T09:40:59.689Z,2.00
2018-12-21T09:41:59.688Z,1.80
2018-12-21T09:42:59.707Z,2.00
2018-12-21T09:43:59.658Z,1.70
2018-12-21T09:44:59.644Z,1.80
2018-12-21T09:45:59.634Z,2.00
2018-12-21T09:46:59.626Z,2.20
2018-12-21T09:47:59.639Z,1.80
2018-12-21T09:48:59.620Z,1.80
2018-12-21T09:49:59.598Z,1.80
2018-12-21T09:50:59.589Z,1.90
2018-12-21T09:51:59.570Z,1.80
2018-12-21T09:52:59.577Z,2.00
2018-12-21T09:53:59.548Z,1.50
2018-12-21T09:54:59.537Z,1.70
2018-12-21T09:55:59.534Z,1.70
2018-12-21T09:56:59.520Z,1.80
2018-12-21T09:57:59.525Z,1.60
2018-12-21T09:58:59.497Z,2.00
2018-12-21T09:59:59.509Z,1.70
2018-12-21T10:00:59.479Z,1.60
2018-12-21T10:01:59.470Z,1.50
2018-12-21T10:02:59.483Z,1.50
2018-12-21T10:03:59.438Z,1.90
2018-12-21T10:04:59.429Z,1.30
2018-12-21T10:05:59.414Z,1.40
2018-12-21T10:06:59.404Z,1.50
2018-12-21T10:07:59.421Z,1.50
2018-12-21T10:08:59.391Z,1.70
2018-12-21T10:09:59.382Z,1.50
2018-12-21T10:10:59.366Z,1.50
2018-12-21T10:11:59.354Z,1.70
2018-12-21T10:12:59.360Z,1.60
2018-12-21T10:13:59.338Z,1.50
2018-12-21T10:14:59.332Z,1.70
2018-12-21T10:15:59.318Z,1.80
2018-12-21T10:16:59.310Z,1.80
2018-12-21T10:17:59.307Z,1.70
2018-12-21T10:18:59.278Z,1.50
2018-12-21T10:19:59.272Z,1.60
2018-12-21T10:20:59.259Z,1.90
2018-12-21T10:21:59.255Z,1.60
2018-12-21T10:22:59.271Z,1.40
2018-12-21T10:23:59.221Z,1.70
2018-12-21T10:24:59.211Z,1.70
2018-12-21T10:25:59.206Z,1.90
2018-12-21T10:26:59.194Z,1.50
2018-12-21T10:27:59.205Z,1.50
2018-12-21T10:28:59.173Z,1.60
2018-12-21T10:29:59.156Z,2.00
2018-12-21T10:30:59.151Z,1.70
2018-12-21T10:31:59.139Z,1.60
2018-12-21T10:32:59.150Z,1.40
2018-12-21T10:33:59.118Z,1.60
2018-12-21T10:34:59.124Z,1.40
2018-12-21T10:35:59.092Z,1.80
2018-12-21T10:37:00.486Z,1.40
2018-12-21T10:37:59.106Z,1.50
2018-12-21T10:38:59.060Z,1.70
2018-12-21T10:39:59.052Z,1.80
2018-12-21T10:40:59.041Z,1.50
2018-12-21T10:41:59.031Z,1.60
2018-12-21T10:42:59.020Z,1.60
2018-12-21T10:43:59.025Z,1.40
2018-12-21T10:44:58.996Z,1.40
2018-12-21T10:45:58.994Z,2.00
2018-12-21T10:46:58.977Z,1.90
2018-12-21T10:48:00.137Z,1.50
2018-12-21T10:48:58.982Z,1.40
2018-12-21T10:49:58.943Z,1.60
2018-12-21T10:50:58.931Z,1.60
2018-12-21T10:51:58.929Z,1.70
2018-12-21T10:52:58.915Z,1.60
2018-12-21T10:53:58.908Z,1.60
2018-12-21T10:54:58.924Z,1.70
2018-12-21T10:55:58.873Z,1.80
2018-12-21T10:56:58.862Z,1.60
2018-12-21T10:57:58.852Z,1.40
2018-12-21T10:58:58.842Z,1.90
2018-12-21T10:59:58.868Z,1.20
2018-12-21T11:00:58.824Z,1.60
2018-12-21T11:01:58.813Z,1.80
2018-12-21T11:02:58.797Z,1.50
2018-12-21T11:03:58.793Z,1.30
2018-12-21T11:04:58.784Z,1.50
2018-12-21T11:05:58.857Z,1.50
2018-12-21T11:06:58.761Z,1.50
2018-12-21T11:07:58.745Z,1.30
2018-12-21T11:08:58.743Z,1.70
2018-12-21T11:09:58.720Z,1.30
2018-12-21T11:10:58.734Z,1.70
2018-12-21T11:11:58.707Z,1.50
2018-12-21T11:12:58.696Z,1.40
2018-12-21T11:13:58.688Z,1.30
2018-12-21T11:14:58.675Z,1.70
2018-12-21T11:15:58.682Z,1.50
2018-12-21T11:16:58.650Z,1.80
2018-12-21T11:17:58.735Z,1.20
2018-12-21T11:18:58.632Z,1.80
2018-12-21T11:19:58.633Z,1.60
2018-12-21T11:20:58.639Z,2.00
2018-12-21T11:21:58.593Z,1.80
2018-12-21T11:22:58.582Z,1.50
2018-12-21T11:23:58.576Z,1.60
2018-12-21T11:24:58.568Z,1.60
2018-12-21T11:25:58.557Z,1.50
2018-12-21T11:26:58.571Z,1.30
2018-12-21T11:27:58.528Z,1.50
2018-12-21T11:28:58.520Z,1.50
2018-12-21T11:29:58.508Z,1.40
2018-12-21T11:30:58.542Z,1.90
2018-12-21T11:31:58.490Z,1.70
2018-12-21T11:32:58.480Z,1.60
2018-12-21T11:33:58.553Z,1.70
2018-12-21T11:34:58.515Z,1.40
2018-12-21T11:35:58.470Z,1.30
2018-12-21T11:36:58.437Z,1.60
2018-12-21T11:37:58.425Z,1.40
2018-12-21T11:38:58.417Z,1.30
2018-12-21T11:39:58.405Z,1.60
2018-12-21T11:40:58.416Z,1.40
2018-12-21T11:41:58.392Z,1.70
2018-12-21T11:42:58.969Z,1.30
2018-12-21T11:43:58.362Z,1.30
2018-12-21T11:44:58.361Z,1.40
2018-12-21T11:45:58.368Z,1.50
2018-12-21T11:46:58.329Z,1.30
2018-12-21T11:47:58.316Z,1.30
2018-12-21T11:49:00.430Z,1.00
2018-12-21T11:49:58.296Z,1.50
2018-12-21T11:50:58.307Z,1.40
2018-12-21T11:51:58.360Z,1.70
2018-12-21T11:52:58.259Z,1.40
2018-12-21T11:53:58.256Z,1.30
2018-12-21T11:54:59.150Z,1.50
2018-12-21T11:55:58.254Z,1.30
2018-12-21T11:56:58.224Z,1.40
2018-12-21T11:57:58.211Z,1.50
2018-12-21T11:58:58.212Z,1.40
2018-12-21T11:59:58.191Z,1.30
2018-12-21T12:00:58.197Z,1.60
2018-12-21T12:01:58.184Z,1.30
2018-12-21T12:02:58.152Z,1.60
2018-12-21T12:03:58.148Z,1.40
2018-12-21T12:04:58.147Z,1.60
2018-12-21T12:05:58.140Z,1.60
2018-12-21T12:06:58.111Z,1.50
2018-12-21T12:07:58.102Z,1.40
2018-12-21T12:09:06.017Z,1.20
2018-12-21T12:09:59.081Z,1.40
2018-12-21T12:10:58.092Z,1.30
2018-12-21T12:11:58.056Z,1.20
2018-12-21T12:12:58.044Z,1.50
2018-12-21T12:13:58.032Z,1.20
2018-12-21T12:14:58.023Z,1.40
2018-12-21T12:15:58.052Z,1.20
2018-12-21T12:16:58.817Z,1.40
2018-12-21T12:17:57.996Z,1.40
2018-12-21T12:18:57.984Z,1.40
2018-12-21T12:19:57.969Z,1.40
2018-12-21T12:20:57.962Z,1.30
2018-12-21T12:21:57.977Z,1.20
2018-12-21T12:22:57.942Z,1.50
2018-12-21T12:23:57.927Z,1.50
2018-12-21T12:24:57.915Z,1.30
2018-12-21T12:25:57.923Z,1.10
2018-12-21T12:26:57.896Z,1.20
2018-12-21T12:27:57.910Z,1.30
2018-12-21T12:28:57.887Z,2.00
2018-12-21T12:29:57.866Z,1.40
2018-12-21T12:30:57.883Z,1.40
2018-12-21T12:31:57.842Z,1.40
2018-12-21T12:32:57.828Z,1.20
2018-12-21T12:33:57.822Z,1.20
2018-12-21T12:34:57.807Z,1.20
2018-12-21T12:35:58.025Z,1.20
2018-12-21T12:36:58.117Z,1.40
2018-12-21T12:37:57.789Z,1.30
2018-12-21T12:38:57.808Z,1.10
2018-12-21T12:39:57.775Z,0.70
2018-12-21T12:41:06.342Z,1.10
2018-12-21T12:41:58.803Z,1.10
2018-12-21T12:42:57.779Z,1.10
2018-12-21T12:43:57.721Z,1.20
2018-12-21T12:44:57.782Z,1.00
2018-12-21T12:45:57.688Z,1.20
2018-12-21T12:46:57.699Z,1.30
2018-12-21T12:47:57.671Z,1.40
2018-12-21T12:48:57.660Z,1.10
2018-12-21T12:49:57.654Z,1.10
2018-12-21T12:50:57.644Z,1.10
2018-12-21T12:51:57.648Z,1.30
2018-12-21T12:52:57.612Z,1.20
2018-12-21T12:53:57.606Z,1.40
2018-12-21T12:55:02.997Z,1.30
2018-12-21T12:55:58.579Z,1.40
2018-12-21T12:56:57.601Z,1.40
2018-12-21T12:57:57.557Z,1.40
2018-12-21T12:58:57.549Z,1.20
2018-12-21T12:59:57.543Z,1.40
2018-12-21T13:00:57.538Z,1.40
2018-12-21T13:01:58.544Z,1.10
2018-12-21T13:02:57.540Z,1.20
2018-12-21T13:03:57.495Z,1.30
2018-12-21T13:04:57.504Z,1.20
2018-12-21T13:05:57.472Z,1.40
2018-12-21T13:06:57.468Z,1.20
2018-12-21T13:07:57.482Z,1.10
2018-12-21T13:08:57.450Z,1.40
2018-12-21T13:09:57.435Z,1.30
2018-12-21T13:10:57.418Z,1.30
2018-12-21T13:11:57.421Z,1.40
2018-12-21T13:12:57.435Z,1.20
2018-12-21T13:13:57.395Z,1.00
2018-12-21T13:14:57.381Z,1.30
2018-12-21T13:15:57.364Z,1.40
2018-12-21T13:16:57.353Z,1.30
2018-12-21T13:17:57.354Z,1.40